TED STEVENS ANCHORAGE INTL

PANC (ANC)
Anchorage, Alaska
Towered

Vatsim Metar:
PANC 250853Z 22004KT 8SM FEW050 SCT200 16/13 A3000 RMK AO2 SLP158 T01610128 402390144 53012

No ATC Online

Traffic

Inbound:
Ident
Type
Name
ETA
Phase
GTI443
H/B744/L
JeanCarlos Hernandez KHPN
10:12 Z
Cruse
SIA7980
H/B748/L
Hoo Jiong Sheng WMKJ
16:55 Z
Cruse

Outbound:
Ident
Type
Name
Destination
Phase